sensor_id;sensor_type;location;lat;lon;timestamp;temperature;humidity
78779;DHT22;68121;52.404;5.318;2023-04-25T00:01:47;7.50;67.90
78779;DHT22;68121;52.404;5.318;2023-04-25T00:04:13;7.50;67.90
78779;DHT22;68121;52.404;5.318;2023-04-25T00:06:39;7.50;67.80
78779;DHT22;68121;52.404;5.318;2023-04-25T00:09:05;7.50;67.70
78779;DHT22;68121;52.404;5.318;2023-04-25T00:11:36;7.50;67.50
78779;DHT22;68121;52.404;5.318;2023-04-25T00:14:03;7.50;67.40
78779;DHT22;68121;52.404;5.318;2023-04-25T00:16:30;7.50;67.20
78779;DHT22;68121;52.404;5.318;2023-04-25T00:19:01;7.50;67.10
78779;DHT22;68121;52.404;5.318;2023-04-25T00:21:29;7.50;67.00
78779;DHT22;68121;52.404;5.318;2023-04-25T00:23:57;7.50;66.80
78779;DHT22;68121;52.404;5.318;2023-04-25T00:26:23;7.50;66.60
78779;DHT22;68121;52.404;5.318;2023-04-25T00:28:49;7.50;66.60
78779;DHT22;68121;52.404;5.318;2023-04-25T00:31:15;7.50;66.50
78779;DHT22;68121;52.404;5.318;2023-04-25T00:33:41;7.50;66.50
78779;DHT22;68121;52.404;5.318;2023-04-25T00:36:07;7.50;66.50
78779;DHT22;68121;52.404;5.318;2023-04-25T00:38:33;7.50;66.50
78779;DHT22;68121;52.404;5.318;2023-04-25T00:41:00;7.50;66.60
78779;DHT22;68121;52.404;5.318;2023-04-25T00:43:26;7.50;66.60
78779;DHT22;68121;52.404;5.318;2023-04-25T00:45:53;7.50;66.60
78779;DHT22;68121;52.404;5.318;2023-04-25T00:48:22;7.50;66.50
78779;DHT22;68121;52.404;5.318;2023-04-25T00:50:53;7.50;66.50
78779;DHT22;68121;52.404;5.318;2023-04-25T00:53:23;7.50;66.30
78779;DHT22;68121;52.404;5.318;2023-04-25T00:55:50;7.40;66.10
78779;DHT22;68121;52.404;5.318;2023-04-25T00:58:17;7.40;66.00
78779;DHT22;68121;52.404;5.318;2023-04-25T01:00:45;7.40;65.90
78779;DHT22;68121;52.404;5.318;2023-04-25T01:03:13;7.30;66.00
78779;DHT22;68121;52.404;5.318;2023-04-25T01:05:41;7.30;65.90
78779;DHT22;68121;52.404;5.318;2023-04-25T01:08:08;7.20;65.90
78779;DHT22;68121;52.404;5.318;2023-04-25T01:10:34;7.20;65.90
78779;DHT22;68121;52.404;5.318;2023-04-25T01:13:00;7.20;65.90
78779;DHT22;68121;52.404;5.318;2023-04-25T01:15:26;7.20;66.00
78779;DHT22;68121;52.404;5.318;2023-04-25T01:17:52;7.20;66.00
78779;DHT22;68121;52.404;5.318;2023-04-25T01:20:21;7.10;66.00
78779;DHT22;68121;52.404;5.318;2023-04-25T01:22:50;7.00;66.00
78779;DHT22;68121;52.404;5.318;2023-04-25T01:25:16;7.00;66.00
78779;DHT22;68121;52.404;5.318;2023-04-25T01:27:43;7.00;66.10
78779;DHT22;68121;52.404;5.318;2023-04-25T01:30:09;7.00;66.20
78779;DHT22;68121;52.404;5.318;2023-04-25T01:32:36;7.00;66.20
78779;DHT22;68121;52.404;5.318;2023-04-25T01:35:10;7.00;66.20
78779;DHT22;68121;52.404;5.318;2023-04-25T01:37:43;7.00;66.20
78779;DHT22;68121;52.404;5.318;2023-04-25T01:40:10;7.00;66.40
78779;DHT22;68121;52.404;5.318;2023-04-25T01:42:40;7.00;66.50
78779;DHT22;68121;52.404;5.318;2023-04-25T01:45:08;7.00;66.50
78779;DHT22;68121;52.404;5.318;2023-04-25T01:47:34;7.00;66.40
78779;DHT22;68121;52.404;5.318;2023-04-25T01:50:05;7.00;66.40
78779;DHT22;68121;52.404;5.318;2023-04-25T01:52:31;7.00;66.50
78779;DHT22;68121;52.404;5.318;2023-04-25T01:54:59;7.00;66.50
78779;DHT22;68121;52.404;5.318;2023-04-25T01:57:25;7.00;66.50
78779;DHT22;68121;52.404;5.318;2023-04-25T01:59:51;7.00;66.40
78779;DHT22;68121;52.404;5.318;2023-04-25T02:02:19;6.90;66.40
78779;DHT22;68121;52.404;5.318;2023-04-25T02:04:45;6.90;66.40
78779;DHT22;68121;52.404;5.318;2023-04-25T02:07:11;6.90;66.30
78779;DHT22;68121;52.404;5.318;2023-04-25T02:09:37;6.90;66.20
78779;DHT22;68121;52.404;5.318;2023-04-25T02:12:03;6.90;66.20
78779;DHT22;68121;52.404;5.318;2023-04-25T02:14:29;6.90;66.20
78779;DHT22;68121;52.404;5.318;2023-04-25T02:16:55;6.90;66.20
78779;DHT22;68121;52.404;5.318;2023-04-25T02:19:22;6.90;66.20
78779;DHT22;68121;52.404;5.318;2023-04-25T02:21:48;6.80;66.20
78779;DHT22;68121;52.404;5.318;2023-04-25T02:24:14;6.80;66.20
78779;DHT22;68121;52.404;5.318;2023-04-25T02:26:40;6.80;66.20
78779;DHT22;68121;52.404;5.318;2023-04-25T02:29:07;6.80;66.20
78779;DHT22;68121;52.404;5.318;2023-04-25T02:31:33;6.70;66.20
78779;DHT22;68121;52.404;5.318;2023-04-25T02:33:59;6.70;66.20
78779;DHT22;68121;52.404;5.318;2023-04-25T02:36:25;6.70;66.20
78779;DHT22;68121;52.404;5.318;2023-04-25T02:38:52;6.70;66.30
78779;DHT22;68121;52.404;5.318;2023-04-25T02:41:18;6.70;66.30
78779;DHT22;68121;52.404;5.318;2023-04-25T02:43:44;6.70;66.50
78779;DHT22;68121;52.404;5.318;2023-04-25T02:46:10;6.70;66.40
78779;DHT22;68121;52.404;5.318;2023-04-25T02:48:36;6.70;66.50
78779;DHT22;68121;52.404;5.318;2023-04-25T02:51:02;6.70;66.40
78779;DHT22;68121;52.404;5.318;2023-04-25T02:53:28;6.70;66.50
78779;DHT22;68121;52.404;5.318;2023-04-25T02:55:54;6.70;66.60
78779;DHT22;68121;52.404;5.318;2023-04-25T02:58:24;6.70;66.50
78779;DHT22;68121;52.404;5.318;2023-04-25T03:00:50;6.70;66.60
78779;DHT22;68121;52.404;5.318;2023-04-25T03:03:16;6.70;66.50
78779;DHT22;68121;52.404;5.318;2023-04-25T03:05:44;6.70;66.60
78779;DHT22;68121;52.404;5.318;2023-04-25T03:08:10;6.70;66.50
78779;DHT22;68121;52.404;5.318;2023-04-25T03:10:36;6.70;66.60
78779;DHT22;68121;52.404;5.318;2023-04-25T03:13:02;6.70;66.60
78779;DHT22;68121;52.404;5.318;2023-04-25T03:15:28;6.70;66.60
78779;DHT22;68121;52.404;5.318;2023-04-25T03:17:55;6.70;66.60
78779;DHT22;68121;52.404;5.318;2023-04-25T03:20:21;6.70;66.60
78779;DHT22;68121;52.404;5.318;2023-04-25T03:22:47;6.70;66.60
78779;DHT22;68121;52.404;5.318;2023-04-25T03:25:13;6.70;66.50
78779;DHT22;68121;52.404;5.318;2023-04-25T03:27:39;6.60;66.50
78779;DHT22;68121;52.404;5.318;2023-04-25T03:30:05;6.50;66.40
78779;DHT22;68121;52.404;5.318;2023-04-25T03:32:32;6.40;66.50
78779;DHT22;68121;52.404;5.318;2023-04-25T03:34:58;6.40;66.60
78779;DHT22;68121;52.404;5.318;2023-04-25T03:37:24;6.30;66.70
78779;DHT22;68121;52.404;5.318;2023-04-25T03:39:50;6.30;66.80
78779;DHT22;68121;52.404;5.318;2023-04-25T03:42:17;6.30;67.00
78779;DHT22;68121;52.404;5.318;2023-04-25T03:44:43;6.30;66.90
78779;DHT22;68121;52.404;5.318;2023-04-25T03:47:09;6.30;66.80
78779;DHT22;68121;52.404;5.318;2023-04-25T03:49:35;6.30;66.60
78779;DHT22;68121;52.404;5.318;2023-04-25T03:52:03;6.40;66.20
78779;DHT22;68121;52.404;5.318;2023-04-25T03:54:29;6.40;65.90
78779;DHT22;68121;52.404;5.318;2023-04-25T03:56:55;6.40;65.60
78779;DHT22;68121;52.404;5.318;2023-04-25T03:59:21;6.40;65.50
78779;DHT22;68121;52.404;5.318;2023-04-25T04:01:47;6.50;65.50
78779;DHT22;68121;52.404;5.318;2023-04-25T04:04:13;6.50;65.60
78779;DHT22;68121;52.404;5.318;2023-04-25T04:06:39;6.50;65.60
78779;DHT22;68121;52.404;5.318;2023-04-25T04:09:05;6.50;65.60
78779;DHT22;68121;52.404;5.318;2023-04-25T04:11:35;6.50;65.60
78779;DHT22;68121;52.404;5.318;2023-04-25T04:14:05;6.50;65.50
78779;DHT22;68121;52.404;5.318;2023-04-25T04:16:31;6.50;65.40
78779;DHT22;68121;52.404;5.318;2023-04-25T04:18:57;6.50;65.50
78779;DHT22;68121;52.404;5.318;2023-04-25T04:21:23;6.50;65.50
78779;DHT22;68121;52.404;5.318;2023-04-25T04:23:50;6.50;65.40
78779;DHT22;68121;52.404;5.318;2023-04-25T04:26:16;6.50;65.30
78779;DHT22;68121;52.404;5.318;2023-04-25T04:28:43;6.50;65.30
78779;DHT22;68121;52.404;5.318;2023-04-25T04:31:12;6.50;65.30
78779;DHT22;68121;52.404;5.318;2023-04-25T04:33:41;6.50;65.40
78779;DHT22;68121;52.404;5.318;2023-04-25T04:36:07;6.60;65.40
78779;DHT22;68121;52.404;5.318;2023-04-25T04:38:33;6.50;65.50
78779;DHT22;68121;52.404;5.318;2023-04-25T04:40:59;6.60;65.60
78779;DHT22;68121;52.404;5.318;2023-04-25T04:43:26;6.60;65.60
78779;DHT22;68121;52.404;5.318;2023-04-25T04:45:52;6.60;65.70
78779;DHT22;68121;52.404;5.318;2023-04-25T04:48:18;6.60;65.70
78779;DHT22;68121;52.404;5.318;2023-04-25T04:50:44;6.60;65.60
78779;DHT22;68121;52.404;5.318;2023-04-25T04:53:13;6.70;65.60
78779;DHT22;68121;52.404;5.318;2023-04-25T04:55:39;6.70;65.50
78779;DHT22;68121;52.404;5.318;2023-04-25T04:58:07;6.70;65.40
78779;DHT22;68121;52.404;5.318;2023-04-25T05:00:33;6.70;65.20
78779;DHT22;68121;52.404;5.318;2023-04-25T05:03:00;6.70;65.10
78779;DHT22;68121;52.404;5.318;2023-04-25T05:05:26;6.70;65.10
78779;DHT22;68121;52.404;5.318;2023-04-25T05:07:52;6.70;65.00
78779;DHT22;68121;52.404;5.318;2023-04-25T05:10:19;6.70;65.00
78779;DHT22;68121;52.404;5.318;2023-04-25T05:12:45;6.70;65.10
78779;DHT22;68121;52.404;5.318;2023-04-25T05:15:11;6.70;65.10
78779;DHT22;68121;52.404;5.318;2023-04-25T05:17:37;6.80;65.10
78779;DHT22;68121;52.404;5.318;2023-04-25T05:20:06;6.80;65.00
78779;DHT22;68121;52.404;5.318;2023-04-25T05:22:32;6.80;65.00
78779;DHT22;68121;52.404;5.318;2023-04-25T05:24:58;6.80;65.00
78779;DHT22;68121;52.404;5.318;2023-04-25T05:27:24;6.80;64.80
78779;DHT22;68121;52.404;5.318;2023-04-25T05:29:50;6.80;64.70
78779;DHT22;68121;52.404;5.318;2023-04-25T05:32:17;6.80;64.60
78779;DHT22;68121;52.404;5.318;2023-04-25T05:34:43;6.80;64.50
78779;DHT22;68121;52.404;5.318;2023-04-25T05:37:12;6.80;64.40
78779;DHT22;68121;52.404;5.318;2023-04-25T05:39:38;6.80;64.40
78779;DHT22;68121;52.404;5.318;2023-04-25T05:42:04;6.80;64.40
78779;DHT22;68121;52.404;5.318;2023-04-25T05:44:30;6.90;64.20
78779;DHT22;68121;52.404;5.318;2023-04-25T05:46:57;7.00;64.10
78779;DHT22;68121;52.404;5.318;2023-04-25T05:49:23;7.20;64.10
78779;DHT22;68121;52.404;5.318;2023-04-25T05:51:49;7.30;64.00
78779;DHT22;68121;52.404;5.318;2023-04-25T05:54:15;7.40;63.90
78779;DHT22;68121;52.404;5.318;2023-04-25T05:56:41;7.50;63.80
78779;DHT22;68121;52.404;5.318;2023-04-25T05:59:07;7.50;63.80
78779;DHT22;68121;52.404;5.318;2023-04-25T06:01:33;7.60;63.90
78779;DHT22;68121;52.404;5.318;2023-04-25T06:03:59;7.70;64.00
78779;DHT22;68121;52.404;5.318;2023-04-25T06:06:25;7.80;64.10
78779;DHT22;68121;52.404;5.318;2023-04-25T06:08:52;7.80;64.20
78779;DHT22;68121;52.404;5.318;2023-04-25T06:11:18;7.80;64.20
78779;DHT22;68121;52.404;5.318;2023-04-25T06:13:46;7.80;64.50
78779;DHT22;68121;52.404;5.318;2023-04-25T06:16:13;7.90;64.60
78779;DHT22;68121;52.404;5.318;2023-04-25T06:18:39;8.00;64.50
78779;DHT22;68121;52.404;5.318;2023-04-25T06:21:05;8.00;64.20
78779;DHT22;68121;52.404;5.318;2023-04-25T06:23:31;8.00;63.70
78779;DHT22;68121;52.404;5.318;2023-04-25T06:25:57;8.00;63.40
78779;DHT22;68121;52.404;5.318;2023-04-25T06:28:23;8.00;63.30
78779;DHT22;68121;52.404;5.318;2023-04-25T06:30:50;8.10;63.10
78779;DHT22;68121;52.404;5.318;2023-04-25T06:33:16;8.20;62.80
78779;DHT22;68121;52.404;5.318;2023-04-25T06:35:42;8.20;62.80
78779;DHT22;68121;52.404;5.318;2023-04-25T06:38:08;8.30;62.70
78779;DHT22;68121;52.404;5.318;2023-04-25T06:40:34;8.30;62.40
78779;DHT22;68121;52.404;5.318;2023-04-25T06:43:00;8.40;62.30
78779;DHT22;68121;52.404;5.318;2023-04-25T06:45:27;8.40;62.10
78779;DHT22;68121;52.404;5.318;2023-04-25T06:47:53;8.30;62.20
78779;DHT22;68121;52.404;5.318;2023-04-25T06:50:19;8.20;62.20
78779;DHT22;68121;52.404;5.318;2023-04-25T06:52:45;8.20;62.20
78779;DHT22;68121;52.404;5.318;2023-04-25T06:55:11;8.10;62.30
78779;DHT22;68121;52.404;5.318;2023-04-25T06:57:37;8.10;62.30
78779;DHT22;68121;52.404;5.318;2023-04-25T07:00:04;8.10;62.30
78779;DHT22;68121;52.404;5.318;2023-04-25T07:02:35;8.10;62.20
78779;DHT22;68121;52.404;5.318;2023-04-25T07:05:02;8.00;62.20
78779;DHT22;68121;52.404;5.318;2023-04-25T07:07:32;8.10;62.30
78779;DHT22;68121;52.404;5.318;2023-04-25T07:09:58;8.10;62.20
78779;DHT22;68121;52.404;5.318;2023-04-25T07:12:24;8.20;62.10
78779;DHT22;68121;52.404;5.318;2023-04-25T07:14:50;8.40;62.00
78779;DHT22;68121;52.404;5.318;2023-04-25T07:17:16;8.50;61.70
78779;DHT22;68121;52.404;5.318;2023-04-25T07:19:42;8.60;61.40
78779;DHT22;68121;52.404;5.318;2023-04-25T07:22:09;8.70;60.90
78779;DHT22;68121;52.404;5.318;2023-04-25T07:24:35;8.80;60.80
78779;DHT22;68121;52.404;5.318;2023-04-25T07:27:01;8.80;60.50
78779;DHT22;68121;52.404;5.318;2023-04-25T07:29:28;8.60;60.70
78779;DHT22;68121;52.404;5.318;2023-04-25T07:31:54;8.40;61.20
78779;DHT22;68121;52.404;5.318;2023-04-25T07:34:20;8.30;61.40
78779;DHT22;68121;52.404;5.318;2023-04-25T07:36:46;8.10;61.70
78779;DHT22;68121;52.404;5.318;2023-04-25T07:39:12;8.00;61.80
78779;DHT22;68121;52.404;5.318;2023-04-25T07:41:38;7.80;61.80
78779;DHT22;68121;52.404;5.318;2023-04-25T07:44:04;7.70;61.80
78779;DHT22;68121;52.404;5.318;2023-04-25T07:46:30;7.80;61.70
78779;DHT22;68121;52.404;5.318;2023-04-25T07:48:57;8.00;61.40
78779;DHT22;68121;52.404;5.318;2023-04-25T07:51:23;8.20;61.10
78779;DHT22;68121;52.404;5.318;2023-04-25T07:53:49;8.40;60.70
78779;DHT22;68121;52.404;5.318;2023-04-25T07:56:15;8.60;60.50
78779;DHT22;68121;52.404;5.318;2023-04-25T07:58:41;8.60;60.40
78779;DHT22;68121;52.404;5.318;2023-04-25T08:01:07;8.80;60.30
78779;DHT22;68121;52.404;5.318;2023-04-25T08:03:33;9.00;60.20
78779;DHT22;68121;52.404;5.318;2023-04-25T08:05:59;9.20;60.00
78779;DHT22;68121;52.404;5.318;2023-04-25T08:08:25;9.40;59.70
78779;DHT22;68121;52.404;5.318;2023-04-25T08:10:51;9.60;59.50
78779;DHT22;68121;52.404;5.318;2023-04-25T08:13:17;9.60;59.30
78779;DHT22;68121;52.404;5.318;2023-04-25T08:15:43;9.70;59.10
78779;DHT22;68121;52.404;5.318;2023-04-25T08:18:09;9.70;59.00
78779;DHT22;68121;52.404;5.318;2023-04-25T08:20:35;9.90;58.80
78779;DHT22;68121;52.404;5.318;2023-04-25T08:23:01;10.10;58.60
78779;DHT22;68121;52.404;5.318;2023-04-25T08:25:27;10.20;58.20
78779;DHT22;68121;52.404;5.318;2023-04-25T08:27:53;10.20;58.10
78779;DHT22;68121;52.404;5.318;2023-04-25T08:30:19;10.40;57.90
78779;DHT22;68121;52.404;5.318;2023-04-25T08:32:46;10.50;57.70
78779;DHT22;68121;52.404;5.318;2023-04-25T08:35:12;10.60;57.50
78779;DHT22;68121;52.404;5.318;2023-04-25T08:37:38;10.70;57.20
78779;DHT22;68121;52.404;5.318;2023-04-25T08:40:05;10.70;56.70
78779;DHT22;68121;52.404;5.318;2023-04-25T08:42:33;10.80;56.80
78779;DHT22;68121;52.404;5.318;2023-04-25T08:45:03;11.00;56.20
78779;DHT22;68121;52.404;5.318;2023-04-25T08:47:30;11.00;55.30
78779;DHT22;68121;52.404;5.318;2023-04-25T08:50:00;10.80;55.40
78779;DHT22;68121;52.404;5.318;2023-04-25T08:52:30;10.80;55.50
78779;DHT22;68121;52.404;5.318;2023-04-25T08:55:00;10.80;55.70
78779;DHT22;68121;52.404;5.318;2023-04-25T08:57:27;10.60;56.40
78779;DHT22;68121;52.404;5.318;2023-04-25T08:59:54;10.30;57.00
78779;DHT22;68121;52.404;5.318;2023-04-25T09:02:21;10.00;57.50
78779;DHT22;68121;52.404;5.318;2023-04-25T09:04:48;9.80;58.00
78779;DHT22;68121;52.404;5.318;2023-04-25T09:07:15;9.60;58.20
78779;DHT22;68121;52.404;5.318;2023-04-25T09:09:44;9.30;58.40
78779;DHT22;68121;52.404;5.318;2023-04-25T09:12:10;9.10;58.50
78779;DHT22;68121;52.404;5.318;2023-04-25T09:14:36;8.90;58.80
78779;DHT22;68121;52.404;5.318;2023-04-25T09:17:04;8.80;58.90
78779;DHT22;68121;52.404;5.318;2023-04-25T09:19:35;8.70;58.90
78779;DHT22;68121;52.404;5.318;2023-04-25T09:22:03;8.60;58.80
78779;DHT22;68121;52.404;5.318;2023-04-25T09:24:36;8.60;58.70
78779;DHT22;68121;52.404;5.318;2023-04-25T09:27:06;8.60;58.70
78779;DHT22;68121;52.404;5.318;2023-04-25T09:29:35;8.60;58.70
78779;DHT22;68121;52.404;5.318;2023-04-25T09:32:19;8.60;58.90
78779;DHT22;68121;52.404;5.318;2023-04-25T09:34:54;8.80;58.70
78779;DHT22;68121;52.404;5.318;2023-04-25T09:39:59;8.80;58.60
78779;DHT22;68121;52.404;5.318;2023-04-25T09:42:27;8.90;58.70
78779;DHT22;68121;52.404;5.318;2023-04-25T09:44:55;9.00;58.50
78779;DHT22;68121;52.404;5.318;2023-04-25T09:47:24;9.20;58.40
78779;DHT22;68121;52.404;5.318;2023-04-25T09:49:51;9.50;58.10
78779;DHT22;68121;52.404;5.318;2023-04-25T09:52:20;9.90;57.80
78779;DHT22;68121;52.404;5.318;2023-04-25T09:54:47;10.20;57.10
78779;DHT22;68121;52.404;5.318;2023-04-25T09:57:19;10.60;56.70
78779;DHT22;68121;52.404;5.318;2023-04-25T09:59:50;10.90;56.30
78779;DHT22;68121;52.404;5.318;2023-04-25T10:02:18;11.10;55.40
78779;DHT22;68121;52.404;5.318;2023-04-25T10:04:50;11.10;55.40
78779;DHT22;68121;52.404;5.318;2023-04-25T10:07:19;11.30;55.40
78779;DHT22;68121;52.404;5.318;2023-04-25T10:09:48;11.50;55.40
78779;DHT22;68121;52.404;5.318;2023-04-25T10:12:16;11.50;55.00
78779;DHT22;68121;52.404;5.318;2023-04-25T10:14:42;11.50;55.00
78779;DHT22;68121;52.404;5.318;2023-04-25T10:17:10;11.50;54.90
78779;DHT22;68121;52.404;5.318;2023-04-25T10:19:40;11.60;55.00
78779;DHT22;68121;52.404;5.318;2023-04-25T10:22:29;11.90;55.10
78779;DHT22;68121;52.404;5.318;2023-04-25T10:24:56;11.90;54.80
78779;DHT22;68121;52.404;5.318;2023-04-25T10:27:23;12.00;54.60
78779;DHT22;68121;52.404;5.318;2023-04-25T10:30:13;12.10;54.70
78779;DHT22;68121;52.404;5.318;2023-04-25T10:32:44;12.10;54.10
78779;DHT22;68121;52.404;5.318;2023-04-25T10:37:38;11.50;54.20
78779;DHT22;68121;52.404;5.318;2023-04-25T10:40:09;11.30;54.10
78779;DHT22;68121;52.404;5.318;2023-04-25T10:42:35;11.10;54.30
78779;DHT22;68121;52.404;5.318;2023-04-25T10:45:04;11.10;54.50
78779;DHT22;68121;52.404;5.318;2023-04-25T10:47:35;11.30;54.70
78779;DHT22;68121;52.404;5.318;2023-04-25T10:50:07;11.50;54.60
78779;DHT22;68121;52.404;5.318;2023-04-25T10:52:33;11.50;54.70
78779;DHT22;68121;52.404;5.318;2023-04-25T10:55:03;11.50;55.00
78779;DHT22;68121;52.404;5.318;2023-04-25T10:57:45;11.70;55.30
78779;DHT22;68121;52.404;5.318;2023-04-25T11:00:17;11.90;55.20
78779;DHT22;68121;52.404;5.318;2023-04-25T11:02:49;12.10;55.10
78779;DHT22;68121;52.404;5.318;2023-04-25T11:05:34;12.40;55.00
78779;DHT22;68121;52.404;5.318;2023-04-25T11:08:01;12.70;54.60
78779;DHT22;68121;52.404;5.318;2023-04-25T11:10:31;12.90;54.30
78779;DHT22;68121;52.404;5.318;2023-04-25T11:12:57;13.10;53.60
78779;DHT22;68121;52.404;5.318;2023-04-25T11:15:24;13.10;53.60
78779;DHT22;68121;52.404;5.318;2023-04-25T11:17:54;13.20;53.40
78779;DHT22;68121;52.404;5.318;2023-04-25T11:20:21;13.30;53.30
78779;DHT22;68121;52.404;5.318;2023-04-25T11:22:47;13.10;52.90
78779;DHT22;68121;52.404;5.318;2023-04-25T11:25:15;12.90;52.20
78779;DHT22;68121;52.404;5.318;2023-04-25T11:27:54;12.70;51.70
78779;DHT22;68121;52.404;5.318;2023-04-25T11:30:22;12.70;51.60
78779;DHT22;68121;52.404;5.318;2023-04-25T11:32:48;12.70;51.70
78779;DHT22;68121;52.404;5.318;2023-04-25T11:35:16;12.80;51.30
78779;DHT22;68121;52.404;5.318;2023-04-25T11:37:43;12.80;51.10
78779;DHT22;68121;52.404;5.318;2023-04-25T11:40:10;12.90;51.10
78779;DHT22;68121;52.404;5.318;2023-04-25T11:42:45;13.00;51.00
78779;DHT22;68121;52.404;5.318;2023-04-25T11:45:12;13.10;50.90
78779;DHT22;68121;52.404;5.318;2023-04-25T11:47:38;13.20;50.80
78779;DHT22;68121;52.404;5.318;2023-04-25T11:50:06;13.10;50.70
78779;DHT22;68121;52.404;5.318;2023-04-25T11:52:45;13.10;50.70
78779;DHT22;68121;52.404;5.318;2023-04-25T11:55:17;13.10;50.60
78779;DHT22;68121;52.404;5.318;2023-04-25T11:57:45;13.10;50.70
78779;DHT22;68121;52.404;5.318;2023-04-25T12:00:16;13.30;50.70
78779;DHT22;68121;52.404;5.318;2023-04-25T12:02:44;13.40;50.70
78779;DHT22;68121;52.404;5.318;2023-04-25T12:05:11;13.50;50.30
78779;DHT22;68121;52.404;5.318;2023-04-25T12:07:38;13.60;50.50
78779;DHT22;68121;52.404;5.318;2023-04-25T12:10:05;13.90;50.20
78779;DHT22;68121;52.404;5.318;2023-04-25T12:12:33;13.70;49.90
78779;DHT22;68121;52.404;5.318;2023-04-25T12:15:29;13.60;49.70
78779;DHT22;68121;52.404;5.318;2023-04-25T12:17:55;13.50;50.00
78779;DHT22;68121;52.404;5.318;2023-04-25T12:20:24;13.30;50.30
78779;DHT22;68121;52.404;5.318;2023-04-25T12:22:51;13.10;50.60
78779;DHT22;68121;52.404;5.318;2023-04-25T12:25:43;12.90;51.10
78779;DHT22;68121;52.404;5.318;2023-04-25T12:28:14;12.80;51.00
78779;DHT22;68121;52.404;5.318;2023-04-25T12:31:12;12.80;51.20
78779;DHT22;68121;52.404;5.318;2023-04-25T12:33:40;12.70;51.20
78779;DHT22;68121;52.404;5.318;2023-04-25T12:36:08;12.60;51.30
78779;DHT22;68121;52.404;5.318;2023-04-25T12:38:37;12.50;51.50
78779;DHT22;68121;52.404;5.318;2023-04-25T12:41:04;12.20;51.50
78779;DHT22;68121;52.404;5.318;2023-04-25T12:43:30;12.00;51.50
78779;DHT22;68121;52.404;5.318;2023-04-25T12:45:56;11.90;51.50
78779;DHT22;68121;52.404;5.318;2023-04-25T12:48:23;12.00;51.60
78779;DHT22;68121;52.404;5.318;2023-04-25T12:50:50;11.90;51.50
78779;DHT22;68121;52.404;5.318;2023-04-25T12:53:18;11.90;51.80
78779;DHT22;68121;52.404;5.318;2023-04-25T12:55:45;11.90;52.20
78779;DHT22;68121;52.404;5.318;2023-04-25T12:58:16;12.00;52.30
78779;DHT22;68121;52.404;5.318;2023-04-25T13:00:43;12.20;52.20
78779;DHT22;68121;52.404;5.318;2023-04-25T13:03:09;12.30;52.00
78779;DHT22;68121;52.404;5.318;2023-04-25T13:05:37;12.50;51.90
78779;DHT22;68121;52.404;5.318;2023-04-25T13:08:03;12.70;51.60
78779;DHT22;68121;52.404;5.318;2023-04-25T13:10:30;12.90;51.30
78779;DHT22;68121;52.404;5.318;2023-04-25T13:12:56;12.90;50.80
78779;DHT22;68121;52.404;5.318;2023-04-25T13:15:24;12.70;50.70
78779;DHT22;68121;52.404;5.318;2023-04-25T13:17:50;12.40;50.80
78779;DHT22;68121;52.404;5.318;2023-04-25T13:20:16;12.10;51.00
78779;DHT22;68121;52.404;5.318;2023-04-25T13:22:44;11.90;51.30
78779;DHT22;68121;52.404;5.318;2023-04-25T13:25:11;12.00;51.20
78779;DHT22;68121;52.404;5.318;2023-04-25T13:27:37;12.00;51.20
78779;DHT22;68121;52.404;5.318;2023-04-25T13:30:05;12.00;51.20
78779;DHT22;68121;52.404;5.318;2023-04-25T13:32:36;11.90;51.10
78779;DHT22;68121;52.404;5.318;2023-04-25T13:35:04;11.90;51.10
78779;DHT22;68121;52.404;5.318;2023-04-25T13:37:31;11.90;51.00
78779;DHT22;68121;52.404;5.318;2023-04-25T13:40:09;12.10;51.00
78779;DHT22;68121;52.404;5.318;2023-04-25T13:42:36;12.30;51.00
78779;DHT22;68121;52.404;5.318;2023-04-25T13:45:02;12.50;51.00
78779;DHT22;68121;52.404;5.318;2023-04-25T13:47:29;12.50;51.10
78779;DHT22;68121;52.404;5.318;2023-04-25T13:49:56;12.20;51.50
78779;DHT22;68121;52.404;5.318;2023-04-25T13:52:23;12.10;51.60
78779;DHT22;68121;52.404;5.318;2023-04-25T13:54:51;12.00;51.90
78779;DHT22;68121;52.404;5.318;2023-04-25T13:57:18;11.90;52.10
78779;DHT22;68121;52.404;5.318;2023-04-25T13:59:44;11.70;52.30
78779;DHT22;68121;52.404;5.318;2023-04-25T14:02:10;11.50;52.50
78779;DHT22;68121;52.404;5.318;2023-04-25T14:04:36;11.40;52.40
78779;DHT22;68121;52.404;5.318;2023-04-25T14:07:03;11.20;52.40
78779;DHT22;68121;52.404;5.318;2023-04-25T14:09:29;11.10;52.30
78779;DHT22;68121;52.404;5.318;2023-04-25T14:11:55;11.00;52.30
78779;DHT22;68121;52.404;5.318;2023-04-25T14:14:22;11.10;52.30
78779;DHT22;68121;52.404;5.318;2023-04-25T14:16:49;11.10;52.30
78779;DHT22;68121;52.404;5.318;2023-04-25T14:19:19;11.30;52.30
78779;DHT22;68121;52.404;5.318;2023-04-25T14:21:46;11.40;52.10
78779;DHT22;68121;52.404;5.318;2023-04-25T14:24:14;11.50;51.80
78779;DHT22;68121;52.404;5.318;2023-04-25T14:26:40;11.50;51.80
78779;DHT22;68121;52.404;5.318;2023-04-25T14:29:07;11.60;51.70
78779;DHT22;68121;52.404;5.318;2023-04-25T14:31:33;11.60;51.50
78779;DHT22;68121;52.404;5.318;2023-04-25T14:33:59;11.50;51.30
78779;DHT22;68121;52.404;5.318;2023-04-25T14:36:27;11.40;51.50
78779;DHT22;68121;52.404;5.318;2023-04-25T14:38:53;11.20;51.60
78779;DHT22;68121;52.404;5.318;2023-04-25T14:41:20;11.10;51.70
78779;DHT22;68121;52.404;5.318;2023-04-25T14:43:46;11.10;51.70
78779;DHT22;68121;52.404;5.318;2023-04-25T14:46:12;11.10;51.70
78779;DHT22;68121;52.404;5.318;2023-04-25T14:48:38;11.00;51.90
78779;DHT22;68121;52.404;5.318;2023-04-25T14:51:04;11.00;51.90
78779;DHT22;68121;52.404;5.318;2023-04-25T14:53:31;10.90;52.00
78779;DHT22;68121;52.404;5.318;2023-04-25T14:55:57;10.80;52.50
78779;DHT22;68121;52.404;5.318;2023-04-25T14:58:23;10.70;52.70
78779;DHT22;68121;52.404;5.318;2023-04-25T15:00:50;10.50;52.70
78779;DHT22;68121;52.404;5.318;2023-04-25T15:03:16;10.30;53.00
78779;DHT22;68121;52.404;5.318;2023-04-25T15:05:43;10.10;53.60
78779;DHT22;68121;52.404;5.318;2023-04-25T15:08:09;10.00;54.00
78779;DHT22;68121;52.404;5.318;2023-04-25T15:10:36;10.00;54.10
78779;DHT22;68121;52.404;5.318;2023-04-25T15:13:03;10.00;54.10
78779;DHT22;68121;52.404;5.318;2023-04-25T15:15:29;10.10;54.10
78779;DHT22;68121;52.404;5.318;2023-04-25T15:17:56;10.10;54.20
78779;DHT22;68121;52.404;5.318;2023-04-25T15:20:23;10.10;54.50
78779;DHT22;68121;52.404;5.318;2023-04-25T15:22:50;10.00;54.70
78779;DHT22;68121;52.404;5.318;2023-04-25T15:25:16;10.00;54.90
78779;DHT22;68121;52.404;5.318;2023-04-25T15:27:45;10.00;55.00
78779;DHT22;68121;52.404;5.318;2023-04-25T15:30:15;9.80;55.20
78779;DHT22;68121;52.404;5.318;2023-04-25T15:32:43;9.70;55.50
78779;DHT22;68121;52.404;5.318;2023-04-25T15:35:10;9.60;55.70
78779;DHT22;68121;52.404;5.318;2023-04-25T15:37:36;9.50;55.80
78779;DHT22;68121;52.404;5.318;2023-04-25T15:40:08;9.50;56.10
78779;DHT22;68121;52.404;5.318;2023-04-25T15:42:36;9.60;56.00
78779;DHT22;68121;52.404;5.318;2023-04-25T15:45:06;9.70;56.10
78779;DHT22;68121;52.404;5.318;2023-04-25T15:47:37;9.80;56.00